Time;durP1;ratioP1;P1;durP2;ratioP2;P2;SDS_P1;SDS_P2;PMS_P1;PMS_P2;Temp;Humidity;BMP_temperature;BMP_pressure;BME280_temperature;BME280_humidity;BME280_pressure;Samples;Min_cycle;Max_cycle;Signal;HPM_P1;HPM_P2
2023/11/16 00:02:12;;;;;;;;;;;;;;;5.51;93.22;100119.73;136785;1279;22433;-82
2023/11/16 00:05:16;;;;;;;;;;;;;;;5.48;93.42;100123.25;136771;1279;22490;-81
2023/11/16 00:08:16;;;;;;;;;;;;;;;5.45;93.13;100122.50;136781;1279;23133;-82
2023/11/16 00:11:17;;;;;;;;;;;;;;;5.41;93.36;100120.92;136800;1276;22423;-82
2023/11/16 00:14:18;;;;;;;;;;;;;;;5.38;93.21;100127.00;136775;1279;23167;-82
2023/11/16 00:17:18;;;;;;;;;;;;;;;5.37;93.36;100129.70;136794;1279;22979;-82
2023/11/16 00:20:19;;;;;;;;;;;;;;;5.35;93.26;100131.97;136780;1279;22430;-82
2023/11/16 00:23:19;;;;;;;;;;;;;;;5.33;93.18;100131.41;136788;1279;22409;-81
2023/11/16 00:26:21;;;;;;;;;;;;;;;5.32;93.21;100132.60;136785;1279;22436;-82
2023/11/16 00:29:26;;;;;;;;;;;;;;;5.30;93.16;100133.95;136811;1279;23775;-81
2023/11/16 00:32:28;;;;;;;;;;;;;;;5.30;93.40;100137.30;136622;1279;22405;-82
2023/11/16 00:35:29;;;;;;;;;;;;;;;5.27;93.11;100135.62;136804;1279;22638;-82
2023/11/16 00:38:29;;;;;;;;;;;;;;;5.25;93.09;100137.59;136807;1279;22417;-82
2023/11/16 00:41:30;;;;;;;;;;;;;;;5.25;93.23;100137.77;136836;1276;22462;-82
2023/11/16 00:44:34;;;;;;;;;;;;;;;5.25;93.20;100141.95;136823;1279;23546;-82
2023/11/16 00:47:34;;;;;;;;;;;;;;;5.26;93.45;100142.23;136806;1279;22425;-82
2023/11/16 00:50:38;;;;;;;;;;;;;;;5.27;93.34;100138.81;136805;1279;23186;-82
2023/11/16 00:53:42;;;;;;;;;;;;;;;5.27;93.19;100138.63;136656;1279;22427;-82
2023/11/16 00:56:44;;;;;;;;;;;;;;;5.29;93.02;100140.16;136801;1279;22505;-82
2023/11/16 00:59:47;;;;;;;;;;;;;;;5.30;93.14;100140.46;136797;1279;22421;-81
2023/11/16 01:02:49;;;;;;;;;;;;;;;5.31;93.23;100146.27;136813;1279;22446;-82
2023/11/16 01:05:49;;;;;;;;;;;;;;;5.32;93.06;100143.46;136836;1279;22436;-82
2023/11/16 01:08:56;;;;;;;;;;;;;;;5.30;92.89;100135.94;136779;1278;22447;-82
2023/11/16 01:11:56;;;;;;;;;;;;;;;5.31;93.18;100136.72;136616;1279;22426;-82
2023/11/16 01:14:59;;;;;;;;;;;;;;;5.33;93.19;100131.96;136807;1279;23303;-82
2023/11/16 01:18:05;;;;;;;;;;;;;;;5.35;93.28;100133.36;136780;1279;22392;-82
2023/11/16 01:21:08;;;;;;;;;;;;;;;5.37;93.22;100133.67;136633;1279;23575;-81
2023/11/16 01:24:09;;;;;;;;;;;;;;;5.38;93.21;100131.70;136625;1279;22410;-82
2023/11/16 01:27:17;;;;;;;;;;;;;;;5.39;92.93;100133.17;136805;1279;23335;-82
2023/11/16 01:30:20;;;;;;;;;;;;;;;5.39;93.03;100131.38;136809;1279;22501;-81
2023/11/16 01:33:20;;;;;;;;;;;;;;;5.40;93.15;100136.96;136801;1279;22442;-81
2023/11/16 01:36:24;;;;;;;;;;;;;;;5.38;93.03;100145.36;136804;1279;24403;-81
2023/11/16 01:39:27;;;;;;;;;;;;;;;5.36;93.10;100148.90;136803;1276;22689;-82
2023/11/16 01:42:28;;;;;;;;;;;;;;;5.36;93.35;100144.08;136826;1276;22488;-82
2023/11/16 01:45:34;;;;;;;;;;;;;;;5.37;93.04;100144.71;136796;1279;22419;-82
2023/11/16 01:48:39;;;;;;;;;;;;;;;5.39;93.50;100143.17;136808;1279;22422;-82
2023/11/16 01:51:45;;;;;;;;;;;;;;;5.38;93.33;100147.99;136820;1279;22410;-81
2023/11/16 01:54:48;;;;;;;;;;;;;;;5.37;93.32;100149.63;136807;1279;22425;-82
2023/11/16 01:57:53;;;;;;;;;;;;;;;5.38;93.54;100150.80;136809;1280;22433;-81
2023/11/16 02:00:56;;;;;;;;;;;;;;;5.40;93.59;100149.90;136630;1279;22450;-81
2023/11/16 02:03:57;;;;;;;;;;;;;;;5.39;93.56;100148.05;136793;1279;22423;-81
2023/11/16 02:07:04;;;;;;;;;;;;;;;5.38;93.47;100146.60;136810;1279;22414;-81
2023/11/16 02:10:05;;;;;;;;;;;;;;;5.34;93.56;100144.43;136798;1279;22477;-81
2023/11/16 02:13:17;;;;;;;;;;;;;;;5.34;93.55;100146.55;136837;1276;22420;-81
2023/11/16 02:16:17;;;;;;;;;;;;;;;5.34;93.76;100143.95;136644;1278;22415;-82
2023/11/16 02:19:29;;;;;;;;;;;;;;;5.30;93.49;100145.05;136802;1279;23337;-81
2023/11/16 02:22:32;;;;;;;;;;;;;;;5.23;93.62;100151.42;136835;1279;22409;-81
2023/11/16 02:26:02;;;;;;;;;;;;;;;5.19;93.54;100152.65;136824;1279;22853;-81
2023/11/16 02:29:04;;;;;;;;;;;;;;;5.17;93.86;100153.27;136739;1279;22436;-82
2023/11/16 02:32:04;;;;;;;;;;;;;;;5.18;93.98;100156.77;136632;1279;22405;-81
2023/11/16 02:35:05;;;;;;;;;;;;;;;5.20;93.78;100160.13;136820;1279;22420;-82
2023/11/16 02:38:06;;;;;;;;;;;;;;;5.19;93.98;100165.41;136653;1279;22495;-82
2023/11/16 02:41:07;;;;;;;;;;;;;;;5.20;94.12;100164.14;136623;1279;22449;-82
2023/11/16 02:44:07;;;;;;;;;;;;;;;5.21;94.06;100157.75;136802;1279;22449;-82
2023/11/16 02:47:09;;;;;;;;;;;;;;;5.19;94.29;100151.98;136798;1279;23531;-82
2023/11/16 02:50:09;;;;;;;;;;;;;;;5.16;94.28;100150.09;136802;1279;22398;-82
2023/11/16 02:53:10;;;;;;;;;;;;;;;5.11;94.25;100146.11;136799;1279;22400;-82
2023/11/16 02:56:16;;;;;;;;;;;;;;;5.08;94.48;100140.73;136803;1279;22449;-82
2023/11/16 02:59:17;;;;;;;;;;;;;;;5.06;94.40;100137.96;136808;1279;22455;-82
2023/11/16 03:02:18;;;;;;;;;;;;;;;5.04;94.58;100129.04;136785;1279;22433;-82
2023/11/16 03:05:21;;;;;;;;;;;;;;;5.04;94.77;100125.16;136784;1280;22450;-82
2023/11/16 03:08:21;;;;;;;;;;;;;;;5.03;94.61;100131.05;136828;1279;22484;-82
2023/11/16 03:11:22;;;;;;;;;;;;;;;5.00;94.64;100133.95;136794;1279;22417;-82
2023/11/16 03:14:22;;;;;;;;;;;;;;;4.99;95.08;100133.50;136794;1279;22411;-82
2023/11/16 03:17:23;;;;;;;;;;;;;;;4.99;95.05;100132.59;136807;1280;23337;-82
2023/11/16 03:20:26;;;;;;;;;;;;;;;4.99;95.25;100145.63;136813;1279;22456;-82
2023/11/16 03:23:26;;;;;;;;;;;;;;;5.01;95.03;100142.39;136797;1279;23199;-82
2023/11/16 03:26:29;;;;;;;;;;;;;;;5.02;94.99;100143.89;136796;1279;22480;-82
2023/11/16 03:29:30;;;;;;;;;;;;;;;5.04;95.03;100142.21;136642;1279;23434;-82
2023/11/16 03:32:30;;;;;;;;;;;;;;;5.03;95.10;100136.79;136632;1280;22428;-82
2023/11/16 03:35:31;;;;;;;;;;;;;;;5.03;95.34;100143.15;136756;1279;22408;-82
2023/11/16 03:38:31;;;;;;;;;;;;;;;5.03;95.24;100146.48;136775;1279;23274;-82
2023/11/16 03:41:34;;;;;;;;;;;;;;;5.02;95.11;100151.29;136817;1276;22467;-82
2023/11/16 03:44:34;;;;;;;;;;;;;;;5.01;95.38;100154.35;136781;1279;22502;-82
2023/11/16 03:47:35;;;;;;;;;;;;;;;5.00;95.28;100153.58;136804;1279;22414;-81
2023/11/16 03:50:35;;;;;;;;;;;;;;;4.98;95.58;100156.49;136707;1279;23251;-82
2023/11/16 03:53:36;;;;;;;;;;;;;;;4.98;95.33;100157.27;136639;1280;22424;-82
2023/11/16 03:56:36;;;;;;;;;;;;;;;4.97;95.56;100156.44;136787;1276;22439;-82
2023/11/16 03:59:38;;;;;;;;;;;;;;;4.98;95.65;100153.01;136793;1280;22424;-82
2023/11/16 04:02:40;;;;;;;;;;;;;;;4.99;95.71;100155.03;136641;1279;23039;-82
2023/11/16 04:05:46;;;;;;;;;;;;;;;5.02;95.87;100154.98;136802;1279;22580;-82
2023/11/16 04:08:46;;;;;;;;;;;;;;;5.04;95.78;100151.10;136807;1279;22558;-81
2023/11/16 04:11:47;;;;;;;;;;;;;;;5.07;95.82;100149.30;136799;1278;22957;-82
2023/11/16 04:14:47;;;;;;;;;;;;;;;5.10;95.91;100150.74;136736;1278;22417;-82
2023/11/16 04:17:48;;;;;;;;;;;;;;;5.13;95.76;100152.64;136786;1279;22437;-82
2023/11/16 04:20:50;;;;;;;;;;;;;;;5.15;95.96;100150.71;136638;1280;22446;-82
2023/11/16 04:23:56;;;;;;;;;;;;;;;5.17;96.10;100146.33;136781;1279;23099;-81
2023/11/16 04:26:56;;;;;;;;;;;;;;;5.20;96.05;100147.98;136813;1280;22467;-82
2023/11/16 04:29:59;;;;;;;;;;;;;;;5.19;95.88;100137.73;136693;1279;23271;-82
2023/11/16 04:33:00;;;;;;;;;;;;;;;5.12;96.06;100130.60;136785;1280;22409;-82
2023/11/16 04:36:00;;;;;;;;;;;;;;;5.06;96.00;100131.52;136791;1279;22417;-82
2023/11/16 04:39:01;;;;;;;;;;;;;;;5.01;96.50;100126.65;136790;1279;22427;-82
2023/11/16 04:42:03;;;;;;;;;;;;;;;4.95;96.34;100123.80;136784;1278;24482;-82
2023/11/16 04:45:07;;;;;;;;;;;;;;;4.90;96.72;100124.38;136787;1276;22412;-81
2023/11/16 04:48:11;;;;;;;;;;;;;;;4.88;96.99;100131.09;136783;1279;22404;-82
2023/11/16 04:51:16;;;;;;;;;;;;;;;4.87;97.09;100130.97;136778;1280;22443;-82
2023/11/16 04:54:17;;;;;;;;;;;;;;;4.86;97.28;100127.86;136789;1279;22560;-83
2023/11/16 04:57:17;;;;;;;;;;;;;;;4.85;97.52;100132.68;136770;1279;23082;-83
2023/11/16 05:00:18;;;;;;;;;;;;;;;4.83;97.60;100129.73;136769;1279;23914;-82
2023/11/16 05:03:20;;;;;;;;;;;;;;;4.82;97.84;100126.31;136784;1280;22436;-82
2023/11/16 05:06:23;;;;;;;;;;;;;;;4.80;97.74;100125.59;136806;1279;23173;-83
2023/11/16 05:09:26;;;;;;;;;;;;;;;4.81;98.00;100125.55;136773;1279;22497;-83
2023/11/16 05:12:27;;;;;;;;;;;;;;;4.80;98.18;100126.64;136798;1280;22398;-82
2023/11/16 05:15:27;;;;;;;;;;;;;;;4.81;98.35;100125.01;136654;1278;22428;-83
2023/11/16 05:18:28;;;;;;;;;;;;;;;4.81;98.44;100122.34;136760;1279;23551;-83
2023/11/16 05:21:29;;;;;;;;;;;;;;;4.82;98.62;100121.23;136784;1279;22440;-82
2023/11/16 05:24:29;;;;;;;;;;;;;;;4.82;98.76;100122.27;136776;1279;22427;-82
2023/11/16 05:27:29;;;;;;;;;;;;;;;4.83;98.76;100122.34;136774;1276;22764;-82
2023/11/16 05:30:31;;;;;;;;;;;;;;;4.85;98.98;100119.55;136784;1279;23603;-82
2023/11/16 05:33:32;;;;;;;;;;;;;;;4.86;98.89;100120.86;136758;1279;22509;-82
2023/11/16 05:36:32;;;;;;;;;;;;;;;4.89;98.67;100125.39;136748;1279;22426;-82
2023/11/16 05:39:36;;;;;;;;;;;;;;;4.90;98.73;100119.80;136610;1279;23252;-82
2023/11/16 05:42:36;;;;;;;;;;;;;;;4.93;98.97;100111.74;136756;1277;22431;-81
2023/11/16 05:45:39;;;;;;;;;;;;;;;4.93;98.77;100114.29;136771;1279;22517;-84
2023/11/16 05:48:40;;;;;;;;;;;;;;;4.94;99.19;100118.65;136794;1279;23227;-83
2023/11/16 05:51:41;;;;;;;;;;;;;;;4.98;99.03;100120.58;136623;1280;22394;-77
2023/11/16 05:54:42;;;;;;;;;;;;;;;5.00;98.80;100120.79;136731;1279;22449;-80
2023/11/16 05:57:46;;;;;;;;;;;;;;;5.02;99.04;100120.42;136759;1279;23251;-80
2023/11/16 06:00:47;;;;;;;;;;;;;;;5.04;99.21;100120.39;136776;1279;22422;-82
2023/11/16 06:03:47;;;;;;;;;;;;;;;5.07;99.23;100124.07;136788;1279;22415;-79
2023/11/16 06:06:48;;;;;;;;;;;;;;;5.08;99.21;100121.70;136779;1279;23812;-80
2023/11/16 06:09:48;;;;;;;;;;;;;;;5.08;99.31;100116.24;136761;1279;22410;-78
2023/11/16 06:12:49;;;;;;;;;;;;;;;5.09;99.03;100115.82;136773;1279;23212;-78
2023/11/16 06:15:49;;;;;;;;;;;;;;;5.09;99.50;100115.93;136761;1276;22523;-78
2023/11/16 06:18:51;;;;;;;;;;;;;;;5.09;99.47;100112.81;136773;1280;23264;-79
2023/11/16 06:21:56;;;;;;;;;;;;;;;5.08;99.78;100116.73;136654;1279;22442;-78
2023/11/16 06:24:57;;;;;;;;;;;;;;;5.08;99.67;100109.52;136811;1279;22434;-78
2023/11/16 06:27:57;;;;;;;;;;;;;;;5.08;99.92;100108.15;136780;1280;22640;-78
2023/11/16 06:30:58;;;;;;;;;;;;;;;5.07;99.90;100105.98;136796;1279;22509;-78
2023/11/16 06:33:58;;;;;;;;;;;;;;;5.07;100.00;100107.23;136794;1280;25822;-78
2023/11/16 06:36:59;;;;;;;;;;;;;;;5.05;100.00;100107.38;136816;1279;22467;-77
2023/11/16 06:40:02;;;;;;;;;;;;;;;5.05;100.00;100109.11;136779;1280;22716;-78
2023/11/16 06:43:03;;;;;;;;;;;;;;;5.06;100.00;100109.04;136780;1280;23612;-78
2023/11/16 06:46:04;;;;;;;;;;;;;;;5.09;100.00;100108.61;136791;1273;23174;-78
2023/11/16 06:49:07;;;;;;;;;;;;;;;5.12;100.00;100112.16;136785;1280;22410;-78
2023/11/16 06:52:14;;;;;;;;;;;;;;;5.13;100.00;100109.67;136793;1279;22444;-77
2023/11/16 06:55:14;;;;;;;;;;;;;;;5.14;100.00;100111.84;136777;1279;22418;-78
2023/11/16 06:58:17;;;;;;;;;;;;;;;5.15;100.00;100114.05;136800;1279;23518;-78
2023/11/16 07:01:20;;;;;;;;;;;;;;;5.16;100.00;100114.09;136759;1278;22461;-78
2023/11/16 07:04:21;;;;;;;;;;;;;;;5.18;100.00;100115.52;136756;1279;22394;-77
2023/11/16 07:07:21;;;;;;;;;;;;;;;5.22;100.00;100113.31;136769;1279;22400;-78
2023/11/16 07:10:22;;;;;;;;;;;;;;;5.24;100.00;100116.77;136797;1279;22410;-78
2023/11/16 07:13:23;;;;;;;;;;;;;;;5.26;100.00;100109.75;136794;1279;22445;-78
2023/11/16 07:16:23;;;;;;;;;;;;;;;5.31;100.00;100108.23;136761;1273;23161;-78
2023/11/16 07:19:26;;;;;;;;;;;;;;;5.39;100.00;100104.06;136777;1277;22424;-78
2023/11/16 07:22:29;;;;;;;;;;;;;;;5.49;100.00;100101.67;136797;1279;22423;-78
2023/11/16 07:25:32;;;;;;;;;;;;;;;5.58;100.00;100102.92;136786;1279;22410;-78
2023/11/16 07:28:33;;;;;;;;;;;;;;;5.67;100.00;100102.11;136776;1279;22407;-78
2023/11/16 07:31:34;;;;;;;;;;;;;;;5.81;100.00;100099.29;136772;1279;22559;-78
2023/11/16 07:34:39;;;;;;;;;;;;;;;5.94;100.00;100097.52;136767;1280;22418;-78
2023/11/16 07:37:39;;;;;;;;;;;;;;;6.06;100.00;100096.63;136661;1279;22452;-78
2023/11/16 07:40:42;;;;;;;;;;;;;;;6.12;100.00;100098.64;136772;1279;22446;-78
2023/11/16 07:43:43;;;;;;;;;;;;;;;6.15;100.00;100098.41;136760;1279;22490;-78
2023/11/16 07:46:43;;;;;;;;;;;;;;;6.18;100.00;100096.96;136762;1277;22437;-78
2023/11/16 07:49:44;;;;;;;;;;;;;;;6.18;100.00;100096.35;136777;1274;22407;-78
2023/11/16 07:52:45;;;;;;;;;;;;;;;6.29;100.00;100094.30;136753;1279;22415;-78
2023/11/16 07:55:48;;;;;;;;;;;;;;;6.51;100.00;100083.54;136780;1280;23234;-77
2023/11/16 07:58:52;;;;;;;;;;;;;;;6.75;100.00;100079.59;136771;1279;22430;-78
2023/11/16 08:01:55;;;;;;;;;;;;;;;7.10;100.00;100076.46;136755;1279;23459;-78
2023/11/16 08:04:56;;;;;;;;;;;;;;;7.42;100.00;100069.88;136721;1279;22476;-78
2023/11/16 08:07:56;;;;;;;;;;;;;;;7.67;99.17;100065.91;136767;1279;23655;-78
2023/11/16 08:10:57;;;;;;;;;;;;;;;7.89;98.51;100069.88;136743;1279;22472;-78
2023/11/16 08:13:57;;;;;;;;;;;;;;;8.15;98.26;100070.35;136724;1280;23317;-78
2023/11/16 08:16:58;;;;;;;;;;;;;;;8.41;97.82;100070.01;136745;1276;22432;-78
2023/11/16 08:19:58;;;;;;;;;;;;;;;8.63;96.74;100066.99;136749;1279;22525;-78
2023/11/16 08:22:59;;;;;;;;;;;;;;;8.85;96.63;100066.14;136716;1279;22438;-77
2023/11/16 08:25:59;;;;;;;;;;;;;;;9.11;96.24;100073.22;136718;1279;22410;-78
2023/11/16 08:29:00;;;;;;;;;;;;;;;9.28;94.36;100070.72;136713;1280;22408;-77
2023/11/16 08:32:00;;;;;;;;;;;;;;;9.43;94.48;100067.04;136708;1279;22447;-78
2023/11/16 08:35:01;;;;;;;;;;;;;;;9.58;93.54;100066.52;136741;1279;23405;-78
2023/11/16 08:38:01;;;;;;;;;;;;;;;9.77;93.46;100069.28;136740;1279;22455;-78
2023/11/16 08:53:46;;;;;;;;;;;;;;;10.70;91.35;100056.90;136723;1279;23483;-78
2023/11/16 08:56:50;;;;;;;;;;;;;;;10.95;90.69;100056.09;136746;1279;23157;-78
2023/11/16 09:00:25;;;;;;;;;;;;;;;11.16;90.03;100055.91;136759;1279;22402;-78
2023/11/16 09:03:18;;;;;;;;;;;;;;;11.39;89.61;100048.41;136726;1279;22508;-77
2023/11/16 09:06:22;;;;;;;;;;;;;;;11.63;88.94;100048.29;136749;1272;22427;-78
2023/11/16 09:09:35;;;;;;;;;;;;;;;11.85;87.67;100048.65;136720;1279;22428;-78
2023/11/16 09:12:37;;;;;;;;;;;;;;;12.04;87.36;100045.91;136736;1279;22442;-77
2023/11/16 09:15:40;;;;;;;;;;;;;;;12.21;86.31;100043.45;136775;1279;22442;-77
2023/11/16 09:18:46;;;;;;;;;;;;;;;12.39;85.89;100042.44;136788;1273;22511;-77
2023/11/16 09:21:47;;;;;;;;;;;;;;;12.52;84.48;100041.00;136671;1279;23291;-78
2023/11/16 09:24:49;;;;;;;;;;;;;;;12.55;83.16;100038.34;136746;1279;23202;-78
2023/11/16 09:27:54;;;;;;;;;;;;;;;12.62;83.03;100037.85;136752;1279;22466;-77
2023/11/16 09:30:57;;;;;;;;;;;;;;;12.68;82.07;100037.36;136779;1279;22412;-78
2023/11/16 09:34:00;;;;;;;;;;;;;;;12.68;81.31;100032.36;136793;1279;22414;-77
2023/11/16 09:37:01;;;;;;;;;;;;;;;12.64;79.56;100029.02;136787;1279;22410;-78
2023/11/16 09:40:04;;;;;;;;;;;;;;;12.59;79.97;100028.30;136786;1279;22440;-78
2023/11/16 09:43:30;;;;;;;;;;;;;;;12.61;79.62;100028.48;136791;1279;22408;-78
2023/11/16 09:46:31;;;;;;;;;;;;;;;12.73;79.32;100025.22;136793;1279;23384;-78
2023/11/16 09:49:35;;;;;;;;;;;;;;;12.74;77.93;100022.79;136756;1279;22414;-78
2023/11/16 09:52:39;;;;;;;;;;;;;;;12.66;77.69;100018.25;136775;1279;22415;-78
2023/11/16 09:55:50;;;;;;;;;;;;;;;12.63;77.38;100009.97;136773;1279;23203;-78
2023/11/16 09:59:02;;;;;;;;;;;;;;;12.59;76.89;100005.20;136774;1279;22386;-78
2023/11/16 10:02:13;;;;;;;;;;;;;;;12.63;77.34;100002.43;136742;1279;22519;-78
2023/11/16 10:05:22;;;;;;;;;;;;;;;12.75;76.81;99996.92;136697;1279;22429;-78
2023/11/16 10:08:23;;;;;;;;;;;;;;;12.76;75.15;99991.48;136794;1279;22405;-78
2023/11/16 10:11:24;;;;;;;;;;;;;;;12.60;74.80;99989.13;136711;1279;22432;-78
2023/11/16 10:14:25;;;;;;;;;;;;;;;12.55;75.39;99987.98;136760;1279;22493;-78
2023/11/16 10:17:26;;;;;;;;;;;;;;;12.35;74.84;99986.75;136658;1279;22394;-78
2023/11/16 10:20:26;;;;;;;;;;;;;;;11.97;74.96;99984.30;136749;1276;23322;-78
2023/11/16 10:23:29;;;;;;;;;;;;;;;11.64;75.14;99984.19;136755;1279;22502;-78
2023/11/16 10:26:32;;;;;;;;;;;;;;;11.41;75.42;99976.77;136767;1279;22499;-78
2023/11/16 10:29:33;;;;;;;;;;;;;;;11.13;75.32;99978.48;136676;1279;127421;-78
2023/11/16 10:32:38;;;;;;;;;;;;;;;10.88;75.49;99981.95;136766;1279;22430;-78
2023/11/16 10:35:43;;;;;;;;;;;;;;;10.60;75.33;99980.91;136747;1279;22430;-78
2023/11/16 10:38:45;;;;;;;;;;;;;;;10.37;75.85;99975.73;136676;1279;22533;-78
2023/11/16 10:41:46;;;;;;;;;;;;;;;10.21;76.04;99976.20;136782;1279;22432;-79
2023/11/16 10:44:47;;;;;;;;;;;;;;;10.04;76.54;99975.14;136751;1279;22420;-78
2023/11/16 10:47:47;;;;;;;;;;;;;;;9.96;76.55;99969.75;136785;1276;22390;-78
2023/11/16 10:50:48;;;;;;;;;;;;;;;10.01;77.34;99969.17;136814;1272;23180;-78
2023/11/16 10:53:52;;;;;;;;;;;;;;;10.20;77.48;99964.33;136785;1276;22410;-78
2023/11/16 10:56:53;;;;;;;;;;;;;;;10.34;77.47;99957.30;136775;1279;22415;-78
2023/11/16 10:59:56;;;;;;;;;;;;;;;10.56;77.73;99955.91;136759;1279;22412;-78
2023/11/16 11:02:59;;;;;;;;;;;;;;;10.81;77.44;99948.84;136784;1279;22597;-78
2023/11/16 11:06:00;;;;;;;;;;;;;;;11.01;76.94;99942.37;136767;1279;22438;-78
2023/11/16 11:09:01;;;;;;;;;;;;;;;11.14;76.10;99936.85;136695;1279;23509;-78
2023/11/16 11:12:05;;;;;;;;;;;;;;;11.22;75.75;99933.55;136671;1279;22464;-78
2023/11/16 11:15:06;;;;;;;;;;;;;;;11.31;75.58;99918.80;136803;1279;22393;-78
2023/11/16 11:18:06;;;;;;;;;;;;;;;11.41;75.00;99905.95;136789;1272;22412;-78
2023/11/16 11:21:08;;;;;;;;;;;;;;;11.47;74.52;99901.39;136784;1278;22413;-78
2023/11/16 11:24:11;;;;;;;;;;;;;;;11.54;74.92;99911.19;136557;1279;22410;-78
2023/11/16 11:27:11;;;;;;;;;;;;;;;11.68;75.03;99909.91;136784;1279;22428;-78
2023/11/16 11:30:16;;;;;;;;;;;;;;;11.84;74.52;99896.66;136766;1279;22431;-78
2023/11/16 11:33:23;;;;;;;;;;;;;;;11.88;73.42;99889.80;136795;1279;22423;-78
2023/11/16 11:36:26;;;;;;;;;;;;;;;11.91;73.09;99884.71;136772;1279;23305;-78
2023/11/16 11:39:41;;;;;;;;;;;;;;;11.97;72.49;99883.98;136772;1279;22420;-78
2023/11/16 11:42:48;;;;;;;;;;;;;;;12.06;72.26;99879.92;136696;1275;22466;-78
2023/11/16 11:45:49;;;;;;;;;;;;;;;12.08;71.16;99882.86;136761;1279;22406;-77
2023/11/16 11:48:54;;;;;;;;;;;;;;;12.02;70.35;99885.41;136785;1270;22395;-78
2023/11/16 11:51:59;;;;;;;;;;;;;;;11.94;70.52;99885.23;136749;1279;23277;-78
2023/11/16 11:54:59;;;;;;;;;;;;;;;11.94;70.95;99871.73;136768;1279;22396;-78
2023/11/16 11:58:03;;;;;;;;;;;;;;;11.97;70.39;99857.81;136753;1279;23563;-78
2023/11/16 12:01:05;;;;;;;;;;;;;;;11.95;69.91;99863.23;136757;1279;23337;-78
2023/11/16 12:04:08;;;;;;;;;;;;;;;11.87;69.33;99861.55;136741;1279;22525;-78
2023/11/16 12:07:10;;;;;;;;;;;;;;;11.86;69.41;99856.09;136753;1279;22426;-78
2023/11/16 12:10:10;;;;;;;;;;;;;;;11.84;69.07;99853.59;136758;1276;22377;-78
2023/11/16 12:13:11;;;;;;;;;;;;;;;11.80;68.87;99856.55;136759;1279;22435;-78
2023/11/16 12:16:16;;;;;;;;;;;;;;;11.69;68.50;99850.37;136727;1279;22496;-78
2023/11/16 12:19:21;;;;;;;;;;;;;;;11.55;68.29;99846.74;136737;1273;23426;-78
2023/11/16 12:22:26;;;;;;;;;;;;;;;11.37;68.39;99844.20;136653;1279;22459;-79
2023/11/16 12:25:27;;;;;;;;;;;;;;;11.26;68.80;99841.47;136675;1279;22406;-78
2023/11/16 12:28:33;;;;;;;;;;;;;;;11.23;68.94;99834.48;136737;1279;23110;-78
2023/11/16 12:31:33;;;;;;;;;;;;;;;11.30;69.01;99833.77;136726;1279;23275;-78
2023/11/16 12:34:34;;;;;;;;;;;;;;;11.36;68.75;99825.55;136760;1279;22506;-78
2023/11/16 12:37:38;;;;;;;;;;;;;;;11.44;68.22;99819.64;136745;1279;22475;-79
2023/11/16 12:40:41;;;;;;;;;;;;;;;11.48;68.03;99817.27;136775;1279;22439;-78
2023/11/16 12:43:41;;;;;;;;;;;;;;;11.49;67.54;99809.49;136650;1279;22434;-77
2023/11/16 12:46:42;;;;;;;;;;;;;;;11.40;67.55;99809.32;136766;1279;22436;-78
2023/11/16 12:49:43;;;;;;;;;;;;;;;11.39;67.81;99807.47;136771;1269;22423;-78
2023/11/16 12:52:43;;;;;;;;;;;;;;;11.36;67.50;99808.73;136762;1279;22423;-78
2023/11/16 12:55:44;;;;;;;;;;;;;;;11.27;67.29;99802.89;136744;1279;22427;-78
2023/11/16 12:58:45;;;;;;;;;;;;;;;11.23;67.35;99802.52;136669;1279;22440;-78
2023/11/16 13:01:46;;;;;;;;;;;;;;;11.14;66.96;99802.05;136759;1279;22451;-78
2023/11/16 13:04:47;;;;;;;;;;;;;;;11.10;67.31;99799.94;136757;1279;22403;-78
2023/11/16 13:07:47;;;;;;;;;;;;;;;11.03;67.06;99806.52;136758;1279;22588;-78
2023/11/16 13:10:48;;;;;;;;;;;;;;;10.93;67.47;99804.02;136669;1279;23214;-78
2023/11/16 13:13:49;;;;;;;;;;;;;;;10.84;67.23;99807.17;136794;1279;22396;-78
2023/11/16 13:16:51;;;;;;;;;;;;;;;10.77;67.63;99805.64;136807;1279;23234;-78
2023/11/16 13:19:53;;;;;;;;;;;;;;;10.73;67.60;99800.23;136800;1279;22429;-78
2023/11/16 13:22:53;;;;;;;;;;;;;;;10.65;67.63;99797.45;136787;1279;23312;-78
2023/11/16 13:25:53;;;;;;;;;;;;;;;10.58;67.69;99799.35;136640;1279;22405;-78
2023/11/16 13:28:54;;;;;;;;;;;;;;;10.52;67.92;99795.33;136810;1279;22442;-78
2023/11/16 13:31:54;;;;;;;;;;;;;;;10.49;68.05;99799.25;136782;1279;22484;-78
2023/11/16 13:34:57;;;;;;;;;;;;;;;10.46;68.08;99796.45;136796;1279;22423;-78
2023/11/16 13:37:58;;;;;;;;;;;;;;;10.42;67.61;99797.45;136834;1279;22424;-78
2023/11/16 13:40:58;;;;;;;;;;;;;;;10.33;67.55;99795.08;136781;1279;22512;-78
2023/11/16 13:43:59;;;;;;;;;;;;;;;10.24;67.17;99804.06;136784;1279;22427;-78
2023/11/16 13:47:00;;;;;;;;;;;;;;;10.15;67.52;99804.73;136819;1279;22406;-78
2023/11/16 13:50:03;;;;;;;;;;;;;;;10.07;67.39;99801.74;136797;1277;22407;-78
2023/11/16 13:53:03;;;;;;;;;;;;;;;10.01;67.44;99799.36;136784;1279;23280;-78
2023/11/16 13:56:04;;;;;;;;;;;;;;;9.97;67.32;99800.02;136786;1279;22410;-78
2023/11/16 13:59:05;;;;;;;;;;;;;;;9.93;67.66;99794.27;136767;1279;22489;-79
2023/11/16 14:02:05;;;;;;;;;;;;;;;9.90;67.77;99788.70;136799;1279;22398;-78
2023/11/16 14:05:13;;;;;;;;;;;;;;;9.86;67.88;99780.42;136785;1272;22474;-78
2023/11/16 14:08:13;;;;;;;;;;;;;;;9.82;68.18;99774.81;136677;1279;22380;-78
2023/11/16 14:11:13;;;;;;;;;;;;;;;9.78;68.26;99779.05;136782;1279;22406;-78
2023/11/16 14:14:19;;;;;;;;;;;;;;;9.75;68.38;99773.97;136777;1279;22433;-79
2023/11/16 14:17:25;;;;;;;;;;;;;;;9.70;68.47;99775.05;136774;1279;22396;-79
2023/11/16 14:20:28;;;;;;;;;;;;;;;9.65;68.58;99776.98;136785;1279;22411;-79
2023/11/16 14:23:28;;;;;;;;;;;;;;;9.58;68.92;99787.46;136658;1279;23722;-78
2023/11/16 14:26:30;;;;;;;;;;;;;;;9.50;69.52;99790.71;136762;1279;22424;-78
2023/11/16 14:29:34;;;;;;;;;;;;;;;9.33;69.76;99784.25;136750;1279;22506;-79
2023/11/16 14:32:38;;;;;;;;;;;;;;;9.12;70.38;99783.19;136766;1279;22429;-78
2023/11/16 14:35:38;;;;;;;;;;;;;;;8.99;70.96;99780.27;136784;1279;23165;-78
2023/11/16 14:38:39;;;;;;;;;;;;;;;8.91;71.42;99777.23;136761;1279;22396;-78
2023/11/16 14:41:43;;;;;;;;;;;;;;;8.80;71.65;99772.41;136671;1279;23144;-78
2023/11/16 14:44:44;;;;;;;;;;;;;;;8.74;72.11;99764.08;136784;1279;22378;-78
2023/11/16 14:47:44;;;;;;;;;;;;;;;8.66;72.52;99760.13;136616;1279;23206;-78
2023/11/16 14:50:46;;;;;;;;;;;;;;;8.63;72.86;99754.14;136784;1272;22431;-78
2023/11/16 14:53:52;;;;;;;;;;;;;;;8.59;73.06;99751.13;136776;1279;23123;-78
2023/11/16 14:56:58;;;;;;;;;;;;;;;8.53;73.23;99753.23;136691;1279;22465;-78
2023/11/16 14:59:58;;;;;;;;;;;;;;;8.49;73.31;99750.48;136759;1279;23304;-78
2023/11/16 15:02:58;;;;;;;;;;;;;;;8.40;73.73;99752.84;136796;1279;22416;-78
2023/11/16 15:05:59;;;;;;;;;;;;;;;8.34;74.13;99743.94;136772;1279;22551;-79
2023/11/16 15:08:59;;;;;;;;;;;;;;;8.31;74.16;99738.28;136795;1279;22435;-78
2023/11/16 15:12:00;;;;;;;;;;;;;;;8.30;74.42;99738.34;136791;1279;23142;-78
2023/11/16 15:15:00;;;;;;;;;;;;;;;8.32;74.78;99737.69;136827;1279;22399;-78
2023/11/16 15:18:01;;;;;;;;;;;;;;;8.30;74.81;99732.76;136765;1279;22423;-78
2023/11/16 15:21:02;;;;;;;;;;;;;;;8.28;74.89;99732.46;136789;1272;22402;-79
2023/11/16 15:24:04;;;;;;;;;;;;;;;8.28;75.37;99734.41;136615;1279;22409;-79
2023/11/16 15:27:04;;;;;;;;;;;;;;;8.25;75.00;99730.99;136769;1279;22413;-78
2023/11/16 15:30:08;;;;;;;;;;;;;;;8.21;75.26;99726.43;136798;1279;22418;-78
2023/11/16 15:33:09;;;;;;;;;;;;;;;8.19;75.57;99719.67;136805;1272;22419;-79
2023/11/16 15:36:10;;;;;;;;;;;;;;;8.15;75.95;99719.73;136790;1279;22377;-78
2023/11/16 15:39:10;;;;;;;;;;;;;;;8.11;76.15;99724.88;136795;1279;22422;-78
2023/11/16 15:42:11;;;;;;;;;;;;;;;8.06;76.43;99720.77;136781;1279;22470;-78
2023/11/16 15:45:17;;;;;;;;;;;;;;;8.02;76.71;99719.78;136764;1279;22415;-79
2023/11/16 15:48:20;;;;;;;;;;;;;;;8.01;77.15;99713.38;136794;1279;22467;-78